Terminal Aerodrome Forecast
Issued by NWS

Home | Current Version | Previous Version | Graphics & Text | Print | Product List | Glossary On
Versions: 1 2 3 4 5 6 7 8 9 10 11 12 13 14 15 16 17 18 19 20
000
FTUS43 KMPX 280520
TAFRWF
TAF
KRWF 280520Z 2806/2906 15013KT P6SM OVC008
     FM282000 19007KT P6SM OVC015
     FM282200 VRB04KT P6SM OVC020
     FM290200 32012G19KT P6SM OVC015=

USA.gov is the U.S. government's official web portal to all federal, state and local government web resources and services.